Time;durP1;ratioP1;P1;durP2;ratioP2;P2;SDS_P1;SDS_P2;PMS_P1;PMS_P2;Temp;Humidity;BMP_temperature;BMP_pressure;BME280_temperature;BME280_humidity;BME280_pressure;Samples;Min_cycle;Max_cycle;Signal;HPM_P1;HPM_P2
2021/10/10 00:02:05;;;;;;;15.65;3.58;;;;;;;9.99;40.76;102426.59;1692057;83;21011;-89
2021/10/10 00:04:33;;;;;;;8.98;2.60;;;;;;;9.99;40.79;102429.28;1692649;83;20911;-89
2021/10/10 00:06:58;;;;;;;15.45;3.52;;;;;;;10.03;40.67;102426.17;1664733;83;21054;-90
2021/10/10 00:09:25;;;;;;;9.18;2.70;;;;;;;10.04;40.88;102429.19;1693436;83;21163;-88
2021/10/10 00:11:51;;;;;;;8.88;3.10;;;;;;;10.03;40.87;102432.41;1695095;83;21085;-89
2021/10/10 00:14:17;;;;;;;9.63;3.08;;;;;;;10.04;40.93;102429.19;1694634;83;21109;-90
2021/10/10 00:16:44;;;;;;;8.28;2.72;;;;;;;10.04;40.79;102425.97;1694600;83;21093;-89
2021/10/10 00:19:10;;;;;;;11.10;3.12;;;;;;;10.04;40.91;102430.02;1694744;83;21633;-91
2021/10/10 00:21:37;;;;;;;8.60;2.62;;;;;;;10.03;40.93;102427.02;1694581;83;21098;-90
2021/10/10 00:24:03;;;;;;;7.15;3.20;;;;;;;10.01;41.26;102429.09;1694807;83;21044;-90
2021/10/10 00:26:29;;;;;;;9.68;2.72;;;;;;;9.98;41.53;102428.98;1694744;83;21749;-90
2021/10/10 00:28:55;;;;;;;8.38;3.05;;;;;;;9.93;41.60;102423.39;1694686;83;21401;-89
2021/10/10 00:31:21;;;;;;;7.25;3.08;;;;;;;9.91;41.74;102430.02;1694551;83;20947;-90
2021/10/10 00:33:47;;;;;;;8.63;3.00;;;;;;;9.88;41.83;102423.72;1694798;83;22242;-90
2021/10/10 00:36:13;;;;;;;9.45;3.45;;;;;;;9.85;42.22;102426.30;1694743;83;21010;-89
2021/10/10 00:38:39;;;;;;;13.95;4.03;;;;;;;9.83;42.16;102426.23;1673930;84;21074;-90
2021/10/10 00:41:06;;;;;;;12.70;3.25;;;;;;;9.80;42.21;102426.65;1666841;84;21069;-89
2021/10/10 00:43:32;;;;;;;11.55;3.50;;;;;;;9.78;42.48;102430.36;1666643;84;21600;-90
2021/10/10 00:45:58;;;;;;;11.85;3.62;;;;;;;9.76;42.80;102425.72;1666935;84;21110;-90
2021/10/10 00:48:24;;;;;;;12.33;3.75;;;;;;;9.73;42.99;102432.02;1666516;84;20970;-89
2021/10/10 00:50:50;;;;;;;12.35;3.65;;;;;;;9.70;43.10;102428.40;1666177;84;20918;-89
2021/10/10 00:53:18;;;;;;;13.15;4.08;;;;;;;9.67;43.12;102428.81;1666914;84;21363;-90
2021/10/10 00:55:51;;;;;;;16.70;3.80;;;;;;;9.63;43.23;102424.90;1666688;84;21626;-89
2021/10/10 00:58:23;;;;;;;16.23;3.27;;;;;;;9.60;43.40;102428.83;1666875;84;21334;-89
2021/10/10 01:00:54;;;;;;;20.92;3.17;;;;;;;9.58;43.74;102427.38;1666834;84;21046;-91
2021/10/10 01:03:21;;;;;;;8.05;2.95;;;;;;;9.57;43.55;102429.77;1666587;85;21042;-92
2021/10/10 01:05:48;;;;;;;14.18;2.98;;;;;;;9.54;43.70;102431.83;1666861;84;21035;-90
2021/10/10 01:08:16;;;;;;;11.45;2.75;;;;;;;9.53;43.77;102439.61;1633610;84;21415;-90
2021/10/10 01:10:45;;;;;;;6.37;3.00;;;;;;;9.50;44.13;102439.16;1664031;84;21122;-89
2021/10/10 01:13:14;;;;;;;9.20;3.15;;;;;;;9.47;44.18;102443.13;1663933;84;20970;-90
2021/10/10 01:15:40;;;;;;;7.80;2.70;;;;;;;9.46;44.35;102441.97;1664267;84;21094;-90
2021/10/10 01:18:06;;;;;;;8.73;2.58;;;;;;;9.44;44.39;102438.65;1664230;84;21014;-90
2021/10/10 01:20:46;;;;;;;12.47;2.92;;;;;;;9.40;44.18;102444.97;1664044;84;21014;-90
2021/10/10 01:23:14;;;;;;;11.93;3.22;;;;;;;9.39;44.65;102444.67;1664308;84;21107;-90
2021/10/10 01:25:40;;;;;;;5.42;2.65;;;;;;;9.36;44.66;102443.73;1664116;86;21077;-88
2021/10/10 01:28:06;;;;;;;9.70;2.70;;;;;;;9.33;44.81;102449.01;1664396;84;21065;-89
2021/10/10 01:30:33;;;;;;;8.75;2.85;;;;;;;9.30;44.90;102448.08;1664286;84;21074;-90
2021/10/10 01:33:00;;;;;;;13.08;3.00;;;;;;;9.27;45.16;102447.14;1664174;84;21089;-90
2021/10/10 01:35:26;;;;;;;8.80;3.25;;;;;;;9.24;45.25;102448.90;1664057;84;21818;-88
2021/10/10 01:37:52;;;;;;;11.10;2.90;;;;;;;9.22;45.29;102440.20;1664000;84;21006;-89
2021/10/10 01:40:19;;;;;;;17.82;2.92;;;;;;;9.19;45.44;102443.30;1664330;84;21121;-88
2021/10/10 01:42:45;;;;;;;8.63;2.42;;;;;;;9.15;45.57;102443.41;1664212;84;21082;-89
2021/10/10 01:45:16;;;;;;;8.15;2.10;;;;;;;9.12;45.84;102449.69;1664463;84;20903;-91
2021/10/10 01:47:42;;;;;;;7.53;2.72;;;;;;;9.06;46.00;102452.70;1664063;84;21086;-90
2021/10/10 01:50:09;;;;;;;10.23;2.90;;;;;;;9.04;46.20;102452.06;1663818;84;21534;-91
2021/10/10 01:52:37;;;;;;;9.68;2.87;;;;;;;9.03;46.20;102449.05;1664264;84;21031;-89
2021/10/10 01:55:04;;;;;;;9.18;2.47;;;;;;;9.01;46.36;102451.13;1664407;84;21081;-89
2021/10/10 01:57:30;;;;;;;5.45;2.17;;;;;;;8.99;46.69;102447.80;1664358;84;21285;-90
2021/10/10 01:59:56;;;;;;;5.75;2.52;;;;;;;8.98;46.82;102451.54;1664298;84;21102;-89
2021/10/10 02:02:22;;;;;;;12.28;2.98;;;;;;;8.95;46.94;102450.08;1664539;84;20895;-89
2021/10/10 02:04:48;;;;;;;8.18;3.20;;;;;;;8.94;47.13;102452.95;1664140;83;20883;-89
2021/10/10 02:07:13;;;;;;;7.33;2.75;;;;;;;8.93;47.35;102453.48;1664334;84;20868;-88
2021/10/10 02:09:42;;;;;;;9.70;2.80;;;;;;;8.93;47.56;102452.66;1665331;84;20938;-90
2021/10/10 02:12:07;;;;;;;9.60;4.00;;;;;;;8.92;47.46;102446.98;1666711;84;21041;-90
2021/10/10 02:14:34;;;;;;;12.13;4.40;;;;;;;8.89;47.73;102450.07;1666861;84;21738;-90
2021/10/10 02:17:00;;;;;;;9.65;3.17;;;;;;;8.90;47.78;102462.47;1666590;84;21327;-90
2021/10/10 02:19:26;;;;;;;8.03;3.20;;;;;;;8.90;47.97;102455.23;1666634;84;21109;-89
2021/10/10 02:21:52;;;;;;;7.60;3.05;;;;;;;8.90;48.20;102459.78;1642153;86;21510;-90
2021/10/10 02:24:18;;;;;;;7.17;2.75;;;;;;;8.90;48.23;102461.13;1666897;84;21070;-90
2021/10/10 02:26:44;;;;;;;5.72;2.25;;;;;;;8.87;48.43;102461.02;1666679;84;20899;-90
2021/10/10 02:29:10;;;;;;;7.40;2.35;;;;;;;8.87;48.72;102462.36;1666613;84;20922;-90
2021/10/10 02:31:42;;;;;;;11.00;2.87;;;;;;;8.87;48.89;102470.42;1666576;84;21041;-90
2021/10/10 02:34:03;;;;;;;9.50;2.72;;;;;;;8.84;48.76;102467.62;1663061;84;21078;-89
2021/10/10 02:36:29;;;;;;;5.20;2.20;;;;;;;8.84;49.04;102466.80;1666819;84;22689;-89
2021/10/10 02:38:55;;;;;;;11.57;3.10;;;;;;;8.84;49.00;102467.62;1666724;84;20911;-89
2021/10/10 02:41:21;;;;;;;8.23;2.80;;;;;;;8.84;48.99;102470.83;1666657;84;20911;-91
2021/10/10 02:43:47;;;;;;;8.38;2.87;;;;;;;8.84;48.87;102471.65;1666769;84;21010;-90
2021/10/10 02:46:12;;;;;;;6.22;2.10;;;;;;;8.84;49.06;102467.62;1666925;84;20911;-91
2021/10/10 02:48:38;;;;;;;6.72;2.37;;;;;;;8.82;49.25;102464.81;1666813;84;21189;-88
2021/10/10 02:51:04;;;;;;;6.67;2.58;;;;;;;8.84;49.26;102466.27;1666700;84;20998;-89
2021/10/10 02:53:30;;;;;;;10.08;2.72;;;;;;;8.83;49.08;102464.63;1666573;84;20895;-89
2021/10/10 02:55:56;;;;;;;7.55;2.83;;;;;;;8.84;49.31;102458.20;1666720;84;21574;-88
2021/10/10 02:58:21;;;;;;;7.30;2.80;;;;;;;8.83;49.31;102456.56;1666778;84;20895;-89
2021/10/10 03:00:47;;;;;;;5.90;2.45;;;;;;;8.84;49.09;102452.01;1666754;84;21231;-90
2021/10/10 03:03:13;;;;;;;7.67;2.47;;;;;;;8.84;49.30;102453.35;1666666;84;21064;-89
2021/10/10 03:05:39;;;;;;;6.83;2.65;;;;;;;8.85;49.30;102459.88;1667124;84;20979;-90
2021/10/10 03:08:05;;;;;;;9.48;2.95;;;;;;;8.86;49.33;102456.67;1666715;84;20899;-89
2021/10/10 03:10:31;;;;;;;9.93;2.85;;;;;;;8.86;49.26;102463.39;1651034;84;21021;-90
2021/10/10 03:12:56;;;;;;;7.33;2.62;;;;;;;8.84;49.61;102456.86;1641128;87;21097;-90
2021/10/10 03:15:23;;;;;;;9.88;3.12;;;;;;;8.83;49.56;102459.77;1641060;86;21804;-89
2021/10/10 03:17:49;;;;;;;7.33;2.62;;;;;;;8.83;49.55;102458.42;1641133;87;21164;-90
2021/10/10 03:20:15;;;;;;;9.35;3.47;;;;;;;8.81;49.62;102457.79;1641238;86;20931;-90
2021/10/10 03:22:41;;;;;;;8.10;2.55;;;;;;;8.78;49.73;102450.95;1641259;87;21490;-90
2021/10/10 03:25:07;;;;;;;8.15;2.98;;;;;;;8.77;49.83;102453.34;1641258;86;21089;-89
2021/10/10 03:27:34;;;;;;;8.20;3.12;;;;;;;8.78;49.81;102454.16;1641186;86;21523;-89
2021/10/10 03:29:59;;;;;;;9.28;2.95;;;;;;;8.77;49.89;102447.14;1641121;86;21046;-90
2021/10/10 03:32:25;;;;;;;7.33;2.87;;;;;;;8.77;49.75;102450.66;1641115;86;20959;-89
2021/10/10 03:34:51;;;;;;;9.98;3.05;;;;;;;8.68;49.89;102433.54;1641443;86;20932;-90
2021/10/10 03:37:17;;;;;;;6.47;3.00;;;;;;;8.68;49.89;102433.54;1641342;86;21680;-92
2021/10/10 03:39:43;;;;;;;14.20;3.00;;;;;;;8.78;49.70;102447.44;1641084;86;21042;-92
2021/10/10 03:42:09;;;;;;;6.30;3.00;;;;;;;8.78;49.52;102449.61;1626357;87;20927;-89
2021/10/10 03:44:35;;;;;;;11.05;2.87;;;;;;;8.80;49.35;102458.83;1641242;86;21498;-92
2021/10/10 03:47:02;;;;;;;13.03;3.08;;;;;;;8.81;49.51;102451.06;1640980;86;21078;-92
2021/10/10 03:49:28;;;;;;;7.08;3.20;;;;;;;8.80;49.40;102451.59;1641638;87;21129;-91
2021/10/10 03:51:54;;;;;;;9.93;3.10;;;;;;;8.80;49.22;102447.55;1640884;87;21006;-92
2021/10/10 03:56:50;;;;;;;9.75;3.92;;;;;;;8.79;49.38;102451.26;1641244;87;21085;-91
2021/10/10 03:59:16;;;;;;;9.70;3.02;;;;;;;8.80;49.32;102450.77;1641088;87;20974;-91
2021/10/10 04:01:45;;;;;;;8.73;2.98;;;;;;;8.80;49.53;102452.11;1641201;86;21086;-92
2021/10/10 04:04:11;;;;;;;12.30;3.25;;;;;;;8.80;49.52;102450.25;1641246;86;21090;-91
2021/10/10 04:06:37;;;;;;;8.35;3.10;;;;;;;8.81;49.32;102443.00;1641383;86;21038;-92
2021/10/10 04:09:03;;;;;;;12.40;3.17;;;;;;;8.81;49.63;102443.83;1641457;87;20891;-92
2021/10/10 04:11:28;;;;;;;10.23;2.95;;;;;;;8.81;49.59;102448.38;1663277;84;20938;-94
2021/10/10 04:13:54;;;;;;;10.10;3.20;;;;;;;8.77;49.67;102447.96;1666481;84;21484;-92
2021/10/10 04:16:20;;;;;;;10.45;2.98;;;;;;;8.82;49.72;102451.38;1666443;84;21049;-93
2021/10/10 04:18:46;;;;;;;11.95;3.05;;;;;;;8.81;49.58;102451.89;1666629;84;20970;-92
2021/10/10 04:21:12;;;;;;;8.58;3.35;;;;;;;8.81;49.70;102452.41;1666581;84;20986;-91
2021/10/10 04:23:38;;;;;;;9.53;3.12;;;;;;;8.83;49.49;102455.73;1666674;84;21014;-91
2021/10/10 04:26:04;;;;;;;11.22;3.12;;;;;;;8.84;49.81;102458.73;1666609;84;21344;-91
2021/10/10 04:28:30;;;;;;;6.15;2.50;;;;;;;8.84;49.80;102465.45;1666287;84;21085;-92
2021/10/10 04:30:56;;;;;;;10.18;3.20;;;;;;;8.83;49.80;102465.97;1666586;84;21661;-91
2021/10/10 04:33:22;;;;;;;11.45;3.20;;;;;;;8.84;50.06;102466.27;1666690;84;20907;-92
2021/10/10 04:35:48;;;;;;;8.33;2.90;;;;;;;8.85;50.09;102470.64;1666623;84;21727;-90
2021/10/10 04:38:16;;;;;;;7.70;2.83;;;;;;;8.86;50.13;102468.77;1666733;84;21097;-92
2021/10/10 04:40:44;;;;;;;10.85;3.35;;;;;;;8.87;50.61;102477.14;1666607;84;21154;-92
2021/10/10 04:43:10;;;;;;;11.57;3.33;;;;;;;8.87;50.62;102475.80;1658713;84;21046;-92
2021/10/10 04:45:36;;;;;;;9.33;3.72;;;;;;;8.86;50.99;102476.32;1694974;83;21607;-89
2021/10/10 04:48:03;;;;;;;14.03;3.42;;;;;;;8.86;50.97;102480.35;1694850;83;20925;-89
2021/10/10 04:50:29;;;;;;;11.97;3.37;;;;;;;8.87;51.04;102475.28;1694831;83;21328;-89
2021/10/10 04:52:55;;;;;;;10.15;3.75;;;;;;;8.89;51.18;102484.50;1694736;83;20912;-90
2021/10/10 04:55:20;;;;;;;20.77;6.47;;;;;;;8.91;51.52;102484.28;1694618;83;20999;-89
2021/10/10 04:57:46;;;;;;;36.13;9.38;;;;;;;8.92;51.00;102484.09;1694677;83;20924;-90
2021/10/10 05:00:13;;;;;;;41.75;9.28;;;;;;;8.95;51.12;102485.55;1694829;83;21046;-92
2021/10/10 05:02:39;;;;;;;31.82;7.55;;;;;;;8.95;51.32;102489.59;1694656;83;21139;-90
2021/10/10 05:05:06;;;;;;;22.13;5.70;;;;;;;8.97;51.08;102492.39;1694640;84;20901;-90
2021/10/10 05:07:32;;;;;;;14.78;4.75;;;;;;;9.01;51.24;102496.84;1694858;83;21080;-89
2021/10/10 05:09:58;;;;;;;22.45;6.28;;;;;;;9.03;51.16;102490.73;1694587;83;20866;-89
2021/10/10 05:12:23;;;;;;;28.80;7.47;;;;;;;9.08;51.34;102498.50;1695010;83;21745;-90
2021/10/10 05:14:49;;;;;;;19.95;5.28;;;;;;;9.12;51.45;102499.44;1694896;83;21101;-90
2021/10/10 05:17:15;;;;;;;20.82;5.10;;;;;;;9.15;51.32;102502.58;1694702;83;20901;-89
2021/10/10 05:19:41;;;;;;;13.78;4.45;;;;;;;9.19;51.07;102503.00;1694910;83;20936;-92
2021/10/10 05:22:07;;;;;;;13.32;4.15;;;;;;;9.23;51.16;102505.05;1694824;83;20920;-93
2021/10/10 05:24:34;;;;;;;11.90;3.83;;;;;;;9.27;51.29;102507.67;1694542;83;21008;-90
2021/10/10 05:27:02;;;;;;;18.98;6.05;;;;;;;9.35;51.32;102512.53;1624178;86;21161;-90
2021/10/10 05:29:28;;;;;;;42.15;12.80;;;;;;;9.39;50.87;102513.28;1624163;86;21023;-90
2021/10/10 05:31:54;;;;;;;49.70;16.02;;;;;;;9.45;50.84;102507.60;1624369;86;20995;-90
2021/10/10 05:34:20;;;;;;;22.87;7.62;;;;;;;9.47;50.69;102511.75;1624372;86;21541;-90
2021/10/10 05:36:46;;;;;;;25.40;8.33;;;;;;;9.55;50.32;102512.88;1624440;86;21173;-91
2021/10/10 05:39:12;;;;;;;23.10;7.92;;;;;;;9.63;50.13;102512.38;1624264;86;21137;-89
2021/10/10 05:41:39;;;;;;;21.55;7.47;;;;;;;9.71;50.02;102514.36;1624356;86;20990;-87
2021/10/10 05:44:05;;;;;;;20.23;7.20;;;;;;;9.81;49.56;102514.45;1623918;86;21071;-88
2021/10/10 05:46:33;;;;;;;15.28;4.95;;;;;;;9.88;49.34;102510.74;1602946;86;20970;-91
2021/10/10 05:48:58;;;;;;;10.93;4.50;;;;;;;9.96;48.93;102513.20;1624585;86;21698;-90
2021/10/10 05:51:24;;;;;;;15.03;5.58;;;;;;;10.05;48.52;102515.16;1602776;87;21273;-89
2021/10/10 05:53:50;;;;;;;14.83;4.40;;;;;;;10.14;48.56;102515.77;1624186;86;20967;-88
2021/10/10 05:56:17;;;;;;;7.50;3.20;;;;;;;10.22;48.17;102514.21;1624440;86;20991;-88
2021/10/10 05:58:44;;;;;;;10.38;3.20;;;;;;;10.26;47.97;102524.05;1624131;86;21003;-91
2021/10/10 06:01:11;;;;;;;10.85;3.17;;;;;;;10.28;47.55;102517.45;1624593;86;21671;-87
2021/10/10 06:03:37;;;;;;;6.03;2.65;;;;;;;10.35;48.12;102518.77;1602239;86;21181;-88
2021/10/10 06:06:06;;;;;;;9.55;2.92;;;;;;;10.40;47.20;102516.28;1623815;86;21078;-87
2021/10/10 06:08:32;;;;;;;8.38;3.10;;;;;;;10.42;47.36;102515.03;1623993;86;21073;-87
2021/10/10 06:10:58;;;;;;;9.48;3.30;;;;;;;10.45;47.16;102518.66;1621191;86;21562;-87
2021/10/10 06:13:24;;;;;;;9.10;3.40;;;;;;;10.50;47.13;102516.69;1617041;87;21588;-87
2021/10/10 06:15:58;;;;;;;21.40;6.10;;;;;;;10.53;46.83;102523.49;1617445;87;21169;-87
2021/10/10 06:18:30;;;;;;;14.83;3.92;;;;;;;10.50;46.27;102518.03;1617084;87;21563;-88
2021/10/10 06:20:57;;;;;;;11.55;2.98;;;;;;;10.51;46.64;102522.38;1617151;87;21112;-88
2021/10/10 06:23:24;;;;;;;14.75;3.22;;;;;;;10.53;46.20;102516.75;1640996;83;21650;-88
2021/10/10 06:25:50;;;;;;;14.03;4.40;;;;;;;10.60;46.65;102527.02;1609845;87;21647;-89
2021/10/10 06:28:17;;;;;;;16.73;5.00;;;;;;;10.66;45.95;102527.52;1600938;87;21103;-88
2021/10/10 06:30:53;;;;;;;11.38;3.35;;;;;;;10.64;45.83;102527.71;1606909;87;21055;-91
2021/10/10 06:33:20;;;;;;;14.13;3.62;;;;;;;10.75;46.10;102528.92;1601350;87;21156;-90
2021/10/10 06:35:46;;;;;;;9.63;3.22;;;;;;;10.86;46.25;102530.14;1597781;87;21501;-92
2021/10/10 06:38:12;;;;;;;11.90;3.62;;;;;;;10.98;46.20;102535.17;1604628;87;21097;-91
2021/10/10 06:40:38;;;;;;;17.60;3.00;;;;;;;11.11;46.20;102534.27;1604218;87;21099;-88
2021/10/10 06:43:05;;;;;;;11.93;2.85;;;;;;;11.20;45.09;102536.19;1605597;88;21078;-87
2021/10/10 06:45:31;;;;;;;14.15;3.08;;;;;;;11.18;45.01;102532.88;1579848;88;21109;-91
2021/10/10 06:47:56;;;;;;;10.58;2.77;;;;;;;11.20;44.70;102539.72;1608105;87;21582;-88
2021/10/10 06:50:22;;;;;;;15.30;3.33;;;;;;;11.22;44.77;102529.54;1604840;87;20964;-89
2021/10/10 06:52:48;;;;;;;5.95;2.55;;;;;;;11.31;44.58;102530.11;1604453;87;21173;-87
2021/10/10 06:55:15;;;;;;;9.83;2.70;;;;;;;11.40;44.69;102530.16;1578693;89;21104;-87
2021/10/10 06:57:42;;;;;;;10.65;3.02;;;;;;;11.46;44.64;102527.94;1578183;89;21046;-88
2021/10/10 07:00:18;;;;;;;6.42;2.77;;;;;;;11.59;44.42;102520.28;1578586;88;21420;-87
2021/10/10 07:02:44;;;;;;;7.95;2.98;;;;;;;11.72;44.77;102520.17;1605541;87;21572;-90
2021/10/10 07:05:11;;;;;;;8.83;2.75;;;;;;;11.81;44.34;102517.49;1601737;87;21169;-88
2021/10/10 07:07:37;;;;;;;8.60;2.80;;;;;;;11.96;44.47;102510.44;1609242;87;21087;-92
2021/10/10 07:10:06;;;;;;;8.30;2.80;;;;;;;12.09;44.02;102510.86;1601812;87;21112;-90
2021/10/10 07:12:32;;;;;;;9.45;3.33;;;;;;;12.12;43.39;102503.66;1599086;87;21116;-90
2021/10/10 07:14:58;;;;;;;7.10;2.70;;;;;;;12.15;43.68;102511.84;1576241;88;21150;-89
2021/10/10 07:17:27;;;;;;;9.70;2.77;;;;;;;12.19;43.59;102515.21;1599930;88;21160;-89
2021/10/10 07:25:04;;;;;;;11.33;3.00;;;;;;;12.41;43.05;102512.92;1629166;86;20980;-90
2021/10/10 07:27:24;;;;;;;9.53;2.90;;;;;;;12.51;42.71;102512.39;1624818;86;21252;-90
2021/10/10 07:29:50;;;;;;;13.10;3.40;;;;;;;12.57;42.46;102507.42;1626673;87;21674;-91
2021/10/10 07:32:16;;;;;;;7.87;3.20;;;;;;;12.71;43.07;102507.57;1636366;86;20972;-90
2021/10/10 07:34:42;;;;;;;15.98;4.58;;;;;;;12.99;42.59;102510.77;1632762;86;21008;-92
2021/10/10 07:37:08;;;;;;;16.27;3.92;;;;;;;13.14;42.14;102503.87;1635926;86;21007;-92
2021/10/10 07:39:35;;;;;;;8.93;3.27;;;;;;;13.24;41.21;102498.45;1634730;87;20995;-93
2021/10/10 07:44:40;;;;;;;12.15;3.65;;;;;;;13.46;40.26;102491.46;1520832;92;21170;-92
2021/10/10 07:47:14;;;;;;;9.18;3.60;;;;;;;13.60;40.76;102491.55;1502639;93;21148;-92
2021/10/10 07:49:35;;;;;;;9.43;2.92;;;;;;;13.88;40.96;102487.86;1496665;94;21139;-88
2021/10/10 07:52:02;;;;;;;8.60;2.75;;;;;;;14.15;39.70;102486.84;1499655;94;21150;-92
2021/10/10 07:54:30;;;;;;;29.50;3.12;;;;;;;14.41;40.08;102486.38;1499248;94;21169;-91
2021/10/10 07:56:55;;;;;;;12.45;3.20;;;;;;;14.76;38.88;102492.25;1510632;93;21173;-89
2021/10/10 07:59:21;;;;;;;12.75;3.67;;;;;;;14.85;37.11;102479.94;1527227;92;20930;-91
2021/10/10 08:01:47;;;;;;;8.50;3.62;;;;;;;14.89;37.00;102483.02;1511251;93;21107;-92
2021/10/10 08:04:13;;;;;;;8.53;3.67;;;;;;;14.89;36.77;102486.55;1496750;95;20928;-93
2021/10/10 08:06:39;;;;;;;9.65;3.55;;;;;;;15.07;36.76;102479.27;1532376;92;21197;-89
2021/10/10 08:09:05;;;;;;;6.87;2.92;;;;;;;15.27;36.09;102482.36;1524788;92;21023;-91
2021/10/10 08:11:31;;;;;;;11.33;2.87;;;;;;;15.52;35.76;102477.06;1508944;93;20944;-90
2021/10/10 08:16:27;;;;;;;10.15;3.47;;;;;;;15.97;34.92;102476.15;1501157;95;21119;-88
2021/10/10 08:18:53;;;;;;;6.83;2.47;;;;;;;16.20;34.12;102470.50;1514596;94;21209;-88
2021/10/10 08:21:19;;;;;;;10.45;3.08;;;;;;;16.39;34.19;102475.11;1531983;90;20927;-89
2021/10/10 08:23:45;;;;;;;13.65;3.22;;;;;;;16.79;33.45;102471.25;1560194;90;21653;-90
2021/10/10 08:26:11;;;;;;;9.18;3.70;;;;;;;17.30;33.38;102473.69;1555680;90;21019;-87
2021/10/10 08:28:37;;;;;;;12.98;4.90;;;;;;;17.39;32.40;102476.22;1564573;90;21096;-88
2021/10/10 08:31:03;;;;;;;19.32;6.03;;;;;;;17.26;32.52;102469.27;1542019;91;21893;-87
2021/10/10 08:33:29;;;;;;;11.48;4.78;;;;;;;17.14;31.72;102470.80;1555985;90;21114;-90
2021/10/10 08:35:55;;;;;;;13.43;4.67;;;;;;;16.92;31.93;102464.59;1571034;89;21043;-89
2021/10/10 08:38:21;;;;;;;15.32;4.90;;;;;;;16.84;32.46;102465.87;1555242;90;21617;-89
2021/10/10 08:40:48;;;;;;;17.27;3.67;;;;;;;17.20;32.55;102467.03;1571515;90;20950;-89
2021/10/10 08:43:19;;;;;;;8.70;2.95;;;;;;;17.14;32.01;102477.61;1553361;90;21155;-89
2021/10/10 08:45:47;;;;;;;14.25;3.35;;;;;;;16.92;31.96;102472.77;1562382;90;21011;-89
2021/10/10 08:48:18;;;;;;;16.05;4.92;;;;;;;16.80;32.22;102462.84;1572402;90;21124;-89
2021/10/10 08:50:45;;;;;;;7.17;2.90;;;;;;;16.61;32.29;102462.84;1557720;90;21090;-89
2021/10/10 08:53:12;;;;;;;8.55;2.67;;;;;;;16.51;32.34;102464.92;1549625;90;21139;-89
2021/10/10 08:55:38;;;;;;;8.48;2.42;;;;;;;16.44;32.40;102461.58;1588890;89;21169;-89
2021/10/10 08:58:08;;;;;;;5.67;2.55;;;;;;;16.54;33.09;102460.87;1581334;89;21002;-91
2021/10/10 09:00:41;;;;;;;8.55;2.98;;;;;;;16.53;32.83;102453.25;1607453;87;21016;-90
2021/10/10 09:03:12;;;;;;;9.30;3.20;;;;;;;16.46;32.98;102460.77;1579791;89;21134;-89
2021/10/10 09:05:38;;;;;;;6.60;2.45;;;;;;;16.41;32.83;102455.25;1588553;89;21160;-90
2021/10/10 09:08:04;;;;;;;11.95;3.83;;;;;;;16.39;32.76;102457.42;1593487;89;21953;-89
2021/10/10 09:10:32;;;;;;;8.28;3.15;;;;;;;16.35;32.95;102461.70;1606517;89;21137;-91
2021/10/10 09:13:11;;;;;;;11.75;3.02;;;;;;;16.41;33.19;102454.44;1582476;87;21135;-91
2021/10/10 09:15:41;;;;;;;11.75;4.22;;;;;;;16.52;33.23;102450.77;1609940;87;21062;-92
2021/10/10 09:18:09;;;;;;;10.93;3.75;;;;;;;16.50;32.93;102449.67;1615997;87;21217;-90
2021/10/10 09:20:40;;;;;;;13.60;3.60;;;;;;;16.43;32.57;102442.22;1617970;87;21094;-88
2021/10/10 09:23:12;;;;;;;8.05;2.85;;;;;;;16.35;32.48;102448.11;1582624;89;21132;-90
2021/10/10 09:25:55;;;;;;;6.30;2.20;;;;;;;16.33;32.83;102447.02;1588921;89;21166;-89
2021/10/10 09:28:23;;;;;;;18.50;3.67;;;;;;;16.41;32.79;102448.99;1580247;89;21059;-89
2021/10/10 09:30:55;;;;;;;11.70;3.42;;;;;;;16.33;32.30;102453.81;1593048;88;21072;-89
2021/10/10 09:33:36;;;;;;;8.48;2.90;;;;;;;16.22;32.71;102456.11;1588444;88;21161;-91
2021/10/10 09:36:08;;;;;;;15.43;5.03;;;;;;;16.27;32.57;102449.39;1529229;91;21213;-91
2021/10/10 09:44:41;;;;;;;;;;;;;;;;;;;;;
2021/10/10 09:47:07;;;;;;;6.35;3.20;;;;;;;16.37;32.12;102443.24;1437324;98;21240;-90
2021/10/10 09:49:34;;;;;;;8.18;3.00;;;;;;;16.18;32.07;102448.18;1439691;99;21124;-88
2021/10/10 09:52:14;;;;;;;5.65;2.83;;;;;;;16.22;32.79;102445.77;1386342;102;21409;-90
2021/10/10 09:54:55;;;;;;;9.73;2.83;;;;;;;16.46;32.74;102449.06;1389533;102;21215;-94
2021/10/10 09:57:33;;;;;;;8.78;2.83;;;;;;;16.50;32.52;102447.47;1385593;102;21154;-88
2021/10/10 09:59:57;;;;;;;16.45;4.75;;;;;;;16.56;32.23;102445.94;1384941;102;21193;-90
2021/10/10 10:02:42;;;;;;;9.15;3.25;;;;;;;16.49;32.39;102439.03;1384972;103;21277;-91
2021/10/10 10:05:11;;;;;;;14.38;3.52;;;;;;;16.51;32.51;102440.42;1325006;107;21130;-90
2021/10/10 10:07:37;;;;;;;8.93;3.92;;;;;;;16.57;32.65;102438.59;1338070;107;21728;-92
2021/10/10 10:10:04;;;;;;;9.73;3.80;;;;;;;16.59;32.90;102435.08;1340103;107;20978;-92
2021/10/10 10:12:31;;;;;;;15.98;4.28;;;;;;;16.46;32.72;102438.99;1345415;105;21683;-89
2021/10/10 10:15:01;;;;;;;14.03;3.62;;;;;;;16.55;33.15;102438.01;1355978;105;21299;-90
2021/10/10 10:17:28;;;;;;;11.25;3.92;;;;;;;16.55;33.07;102438.83;1356767;102;21195;-90
2021/10/10 10:19:58;;;;;;;13.05;3.45;;;;;;;16.62;32.98;102441.89;1383928;102;21702;-93
2021/10/10 10:22:25;;;;;;;13.70;4.10;;;;;;;16.71;32.41;102430.31;1397122;101;21284;-87
2021/10/10 10:24:52;;;;;;;10.38;3.65;;;;;;;16.72;32.50;102437.39;1401143;101;21172;-87
2021/10/10 10:27:19;;;;;;;14.23;3.90;;;;;;;16.66;32.40;102434.33;1403241;101;21265;-90
2021/10/10 10:29:48;;;;;;;11.00;3.80;;;;;;;16.68;32.78;102433.55;1405466;101;21212;-92
2021/10/10 10:32:17;;;;;;;10.88;3.60;;;;;;;16.74;32.32;102435.79;1396566;101;21201;-93
2021/10/10 10:35:05;;;;;;;9.03;3.40;;;;;;;16.83;32.15;102436.19;1409203;101;21173;-91
2021/10/10 10:37:47;;;;;;;10.43;3.27;;;;;;;16.77;31.51;102425.77;1401591;101;21184;-90
2021/10/10 10:40:28;;;;;;;11.97;4.65;;;;;;;16.74;31.70;102433.87;1407205;98;21127;-88
2021/10/10 10:42:57;;;;;;;12.03;3.33;;;;;;;16.69;31.52;102422.92;1433491;95;21169;-91
2021/10/10 10:45:34;;;;;;;14.75;3.58;;;;;;;16.75;31.56;102430.61;1463472;96;21263;-91
2021/10/10 10:48:04;;;;;;;27.05;5.33;;;;;;;16.62;31.44;102429.13;1509454;91;21703;-92
2021/10/10 10:50:42;;;;;;;17.37;3.20;;;;;;;16.55;31.78;102421.67;1521397;94;21160;-91
2021/10/10 10:53:15;;;;;;;11.00;2.95;;;;;;;16.49;31.54;102418.62;1503210;94;21125;-92
2021/10/10 10:55:45;;;;;;;;;;;;;;;16.47;31.70;102413.95;1522136;93;21090;-90
2021/10/10 10:58:15;;;;;;;9.80;3.25;;;;;;;16.60;31.19;102416.84;1515412;93;20221;-92
2021/10/10 11:00:46;;;;;;;11.75;3.08;;;;;;;16.60;31.82;102418.20;1539302;92;21096;-89
2021/10/10 11:03:25;;;;;;;24.50;5.05;;;;;;;16.59;31.65;102414.66;1584639;90;21281;-89
2021/10/10 11:05:58;;;;;;;19.87;4.25;;;;;;;16.58;31.90;102415.72;1587710;90;21144;-87
2021/10/10 11:08:35;;;;;;;8.18;4.00;;;;;;;16.59;31.45;102417.39;1587043;90;21636;-91
2021/10/10 11:11:20;;;;;;;18.92;5.30;;;;;;;16.53;31.42;102417.02;1584143;90;21152;-87
2021/10/10 11:16:29;;;;;;;19.17;4.60;;;;;;;16.32;31.07;102418.17;1481339;95;21077;-89
2021/10/10 11:19:00;;;;;;;18.75;4.85;;;;;;;16.32;31.84;102403.20;1448104;97;21200;-92
2021/10/10 11:21:34;;;;;;;13.43;4.22;;;;;;;16.42;31.49;102402.49;1445743;97;21138;-91
2021/10/10 11:24:04;;;;;;;12.90;4.87;;;;;;;16.33;30.95;102404.84;1443599;99;21179;-90
2021/10/10 11:26:34;;;;;;;12.88;3.22;;;;;;;16.33;31.36;102400.75;1443712;99;21143;-91
2021/10/10 11:29:08;;;;;;;14.30;2.98;;;;;;;16.44;30.53;102395.42;1443716;99;21197;-91
2021/10/10 11:31:37;;;;;;;9.68;3.42;;;;;;;16.44;30.66;102397.62;1443499;99;21159;-91
2021/10/10 11:34:06;;;;;;;12.70;4.08;;;;;;;16.53;31.01;102406.13;1443629;99;22956;-92
2021/10/10 11:36:51;;;;;;;10.45;3.08;;;;;;;16.60;30.57;102396.43;1443877;99;21095;-91
2021/10/10 11:39:24;;;;;;;18.25;3.05;;;;;;;16.65;29.43;102391.02;1419791;99;21100;-91
2021/10/10 11:41:55;;;;;;;8.13;2.70;;;;;;;16.63;29.26;102401.36;1416192;101;21310;-90
2021/10/10 11:44:41;;;;;;;9.35;2.83;;;;;;;16.54;29.43;102394.19;1416076;101;21043;-87
2021/10/10 11:47:24;;;;;;;8.65;2.95;;;;;;;16.53;29.37;102396.09;1416243;101;21155;-90
2021/10/10 11:49:59;;;;;;;8.43;3.50;;;;;;;16.42;29.58;102395.69;1396364;101;21107;-88
2021/10/10 11:52:31;;;;;;;13.72;3.00;;;;;;;16.45;29.77;102397.08;1361496;104;21177;-85